createdAt,value
2022-08-05T00:00:16.181Z,23.30
2022-08-05T00:02:51.696Z,23.30
2022-08-05T00:06:02.011Z,23.30
2022-08-05T00:08:32.403Z,23.30
2022-08-05T00:11:00.345Z,23.20
2022-08-05T00:13:38.216Z,23.20
2022-08-05T00:16:12.220Z,23.20
2022-08-05T00:18:42.194Z,23.20
2022-08-05T00:21:10.085Z,23.20
2022-08-05T00:23:46.489Z,23.20
2022-08-05T00:26:16.346Z,23.10
2022-08-05T00:28:45.898Z,23.10
2022-08-05T00:31:13.634Z,23.10
2022-08-05T00:34:54.360Z,23.10
2022-08-05T00:37:12.636Z,23.10
2022-08-05T00:39:17.344Z,23.10
2022-08-05T00:41:55.337Z,23.10
2022-08-05T00:44:30.713Z,23.00
2022-08-05T00:47:01.970Z,23.00
2022-08-05T00:49:51.094Z,23.00
2022-08-05T00:52:28.793Z,22.90
2022-08-05T00:54:56.774Z,23.00
2022-08-05T00:57:38.257Z,22.90
2022-08-05T01:00:13.318Z,22.90
2022-08-05T01:02:41.329Z,22.90
2022-08-05T01:05:12.642Z,22.90
2022-08-05T01:08:42.156Z,22.90
2022-08-05T01:10:31.948Z,22.80
2022-08-05T01:13:05.442Z,22.80
2022-08-05T01:15:51.293Z,22.80
2022-08-05T01:18:27.492Z,22.80
2022-08-05T01:20:55.181Z,22.80
2022-08-05T01:23:38.198Z,22.80
2022-08-05T01:26:26.324Z,22.70
2022-08-05T01:29:12.134Z,22.70
2022-08-05T01:31:47.683Z,22.70
2022-08-05T01:34:35.874Z,22.70
2022-08-05T01:37:09.684Z,22.60
2022-08-05T01:39:58.636Z,22.60
2022-08-05T01:42:27.525Z,22.60
2022-08-05T01:44:59.234Z,22.60
2022-08-05T01:47:30.537Z,22.60
2022-08-05T01:50:15.755Z,22.60
2022-08-05T01:52:49.890Z,22.60
2022-08-05T01:55:19.280Z,22.50
2022-08-05T01:58:10.465Z,22.50
2022-08-05T02:00:37.666Z,22.50
2022-08-05T02:03:24.447Z,22.50
2022-08-05T02:05:59.782Z,22.50
2022-08-05T02:08:30.851Z,22.50
2022-08-05T02:11:23.686Z,22.50
2022-08-05T02:13:54.160Z,22.50
2022-08-05T02:16:23.387Z,22.50
2022-08-05T02:18:59.648Z,22.40
2022-08-05T02:21:40.320Z,22.40
2022-08-05T02:24:14.574Z,22.40
2022-08-05T02:26:53.841Z,22.40
2022-08-05T02:29:26.031Z,22.40
2022-08-05T02:32:12.384Z,22.40
2022-08-05T02:34:54.675Z,22.40
2022-08-05T02:37:24.936Z,22.40
2022-08-05T02:39:53.113Z,22.30
2022-08-05T02:42:25.748Z,22.40
2022-08-05T02:44:55.731Z,22.30
2022-08-05T02:47:24.243Z,22.30
2022-08-05T02:49:52.794Z,22.30
2022-08-05T02:52:29.464Z,22.30
2022-08-05T02:54:58.763Z,22.30
2022-08-05T02:58:09.191Z,22.30
2022-08-05T03:00:17.756Z,22.30
2022-08-05T03:02:46.359Z,22.30
2022-08-05T03:05:15.092Z,22.20
2022-08-05T03:08:06.992Z,22.30
2022-08-05T03:10:31.656Z,22.20
2022-08-05T03:15:28.379Z,22.20
2022-08-05T03:17:57.583Z,22.20
2022-08-05T03:20:25.412Z,22.20
2022-08-05T03:22:57.079Z,22.20
2022-08-05T03:25:32.441Z,22.20
2022-08-05T03:28:14.538Z,22.20
2022-08-05T03:30:47.273Z,22.10
2022-08-05T03:33:14.981Z,22.10
2022-08-05T03:35:42.614Z,22.10
2022-08-05T03:38:14.588Z,22.10
2022-08-05T03:40:45.374Z,22.20
2022-08-05T03:44:09.902Z,22.10
2022-08-05T03:46:05.654Z,22.10
2022-08-05T03:48:36.777Z,22.10
2022-08-05T03:52:37.668Z,22.10
2022-08-05T03:55:53.477Z,22.10
2022-08-05T03:56:55.954Z,22.10
2022-08-05T03:59:47.170Z,22.00
2022-08-05T04:02:38.842Z,22.00
2022-08-05T04:05:10.414Z,22.00
2022-08-05T04:07:53.525Z,22.00
2022-08-05T04:10:27.738Z,22.00
2022-08-05T04:12:56.322Z,22.00
2022-08-05T04:15:32.850Z,22.00
2022-08-05T04:18:07.225Z,22.00
2022-08-05T04:20:37.460Z,22.00
2022-08-05T04:23:05.135Z,22.00
2022-08-05T04:25:56.543Z,21.90
2022-08-05T04:28:21.099Z,22.00
2022-08-05T04:31:01.092Z,21.90
2022-08-05T04:33:54.774Z,22.00
2022-08-05T04:36:45.634Z,22.00
2022-08-05T04:39:04.948Z,21.90
2022-08-05T04:41:37.634Z,22.00
2022-08-05T04:44:09.487Z,22.00
2022-08-05T04:46:38.515Z,21.90
2022-08-05T04:49:14.490Z,21.90
2022-08-05T04:51:43.660Z,21.90
2022-08-05T04:54:11.963Z,21.90
2022-08-05T04:56:40.613Z,21.90
2022-08-05T04:59:21.491Z,21.90
2022-08-05T05:02:35.171Z,21.90
2022-08-05T05:04:47.557Z,21.90
2022-08-05T05:07:18.410Z,21.90
2022-08-05T05:09:51.991Z,21.90
2022-08-05T05:12:22.248Z,21.90
2022-08-05T05:14:51.344Z,21.90
2022-08-05T05:17:23.964Z,21.90
2022-08-05T05:19:54.099Z,21.90
2022-08-05T05:22:23.888Z,21.90
2022-08-05T05:24:57.214Z,21.90
2022-08-05T05:27:41.439Z,21.90
2022-08-05T05:30:28.706Z,21.90
2022-08-05T05:33:00.540Z,21.90
2022-08-05T05:35:34.473Z,21.90
2022-08-05T05:38:09.409Z,21.90
2022-08-05T05:40:48.287Z,21.90
2022-08-05T05:43:22.432Z,21.90
2022-08-05T05:46:13.714Z,21.90
2022-08-05T05:48:45.846Z,21.90
2022-08-05T05:51:19.202Z,21.90
2022-08-05T05:53:57.902Z,21.90
2022-08-05T05:56:33.047Z,21.90
2022-08-05T05:59:05.130Z,21.90
2022-08-05T06:01:37.337Z,21.90
2022-08-05T06:04:11.373Z,21.90
2022-08-05T06:06:47.653Z,22.00
2022-08-05T06:09:24.850Z,21.90
2022-08-05T06:11:59.986Z,21.90
2022-08-05T06:14:30.812Z,22.00
2022-08-05T06:16:59.137Z,21.90
2022-08-05T06:19:35.380Z,22.00
2022-08-05T06:22:04.704Z,21.90
2022-08-05T06:24:35.272Z,21.90
2022-08-05T06:27:03.933Z,21.90
2022-08-05T06:29:46.921Z,21.90
2022-08-05T06:32:24.836Z,21.90
2022-08-05T06:34:56.820Z,21.90
2022-08-05T06:37:56.996Z,21.90
2022-08-05T06:40:18.170Z,21.90
2022-08-05T06:42:52.744Z,21.90
2022-08-05T06:45:44.944Z,21.80
2022-08-05T06:48:47.162Z,21.70
2022-08-05T06:50:57.704Z,21.60
2022-08-05T06:53:27.905Z,21.60
2022-08-05T06:55:58.083Z,21.60
2022-08-05T06:58:34.899Z,21.60
2022-08-05T07:01:04.583Z,21.60
2022-08-05T07:03:33.276Z,21.60
2022-08-05T07:06:05.649Z,21.60
2022-08-05T07:08:47.920Z,21.60
2022-08-05T07:11:25.618Z,21.60
2022-08-05T07:14:15.630Z,21.60
2022-08-05T07:18:01.765Z,21.60
2022-08-05T07:22:30.147Z,21.60
2022-08-05T07:24:59.253Z,21.60
2022-08-05T07:27:27.711Z,21.60
2022-08-05T07:30:28.230Z,21.60
2022-08-05T07:32:58.542Z,21.60
2022-08-05T07:35:55.665Z,21.60
2022-08-05T07:38:32.533Z,21.60
2022-08-05T07:42:07.098Z,21.60
2022-08-05T07:43:56.090Z,21.60
2022-08-05T07:46:26.046Z,21.60
2022-08-05T07:49:04.339Z,21.60
2022-08-05T07:51:40.842Z,21.50
2022-08-05T07:54:18.622Z,21.50
2022-08-05T07:57:01.155Z,21.40
2022-08-05T07:59:40.402Z,21.40
2022-08-05T08:02:16.694Z,21.30
2022-08-05T08:04:49.622Z,21.30
2022-08-05T08:07:22.685Z,21.20
2022-08-05T08:09:53.050Z,21.00
2022-08-05T08:12:35.521Z,21.00
2022-08-05T08:15:14.270Z,21.00
2022-08-05T08:17:49.844Z,20.80
2022-08-05T08:20:59.981Z,20.60
2022-08-05T08:24:03.403Z,20.50
2022-08-05T08:26:02.795Z,20.40
2022-08-05T08:28:37.086Z,20.40
2022-08-05T08:31:15.000Z,20.30
2022-08-05T08:33:45.540Z,20.20
2022-08-05T08:36:48.868Z,20.10
2022-08-05T08:39:02.373Z,20.10
2022-08-05T08:41:52.524Z,20.10
2022-08-05T08:45:23.475Z,20.00
2022-08-05T08:47:47.699Z,20.00
2022-08-05T08:50:22.916Z,20.00
2022-08-05T08:52:55.860Z,20.00
2022-08-05T08:55:31.937Z,20.00
2022-08-05T08:58:12.923Z,19.90
2022-08-05T09:00:41.827Z,19.90
2022-08-05T09:03:11.101Z,19.90
2022-08-05T09:06:07.656Z,19.90
2022-08-05T09:08:30.108Z,19.90
2022-08-05T09:10:58.720Z,19.90
2022-08-05T09:13:31.571Z,19.90
2022-08-05T09:16:00.701Z,20.00
2022-08-05T09:18:29.924Z,20.00
2022-08-05T09:20:58.886Z,20.00
2022-08-05T09:23:37.261Z,20.00
2022-08-05T09:26:20.903Z,20.10
2022-08-05T09:28:50.025Z,20.10
2022-08-05T09:31:43.863Z,20.10
2022-08-05T09:34:06.562Z,20.10
2022-08-05T09:36:54.449Z,20.20
2022-08-05T09:39:24.427Z,20.30
2022-08-05T09:42:13.529Z,20.30
2022-08-05T09:44:51.270Z,20.40
2022-08-05T09:47:22.379Z,20.40
2022-08-05T09:49:54.731Z,20.40
2022-08-05T09:52:35.043Z,20.50
2022-08-05T09:55:56.859Z,20.50
2022-08-05T09:57:58.638Z,20.50
2022-08-05T10:00:27.732Z,20.50
2022-08-05T10:02:58.289Z,20.60
2022-08-05T10:05:27.583Z,20.60
2022-08-05T10:08:35.879Z,20.70
2022-08-05T10:10:44.793Z,20.70
2022-08-05T10:13:14.575Z,20.70
2022-08-05T10:15:43.787Z,20.80
2022-08-05T10:18:19.692Z,20.90
2022-08-05T10:20:52.672Z,21.10
2022-08-05T10:23:55.326Z,21.20
2022-08-05T10:26:14.417Z,21.20
2022-08-05T10:28:48.593Z,21.40
2022-08-05T10:32:49.269Z,21.50
2022-08-05T10:34:07.105Z,21.50
2022-08-05T10:36:37.127Z,21.60
2022-08-05T10:39:10.297Z,21.60
2022-08-05T10:42:01.002Z,21.70
2022-08-05T10:44:30.912Z,21.90
2022-08-05T10:46:58.520Z,22.00
2022-08-05T10:49:33.042Z,22.10
2022-08-05T10:52:03.299Z,22.20
2022-08-05T10:54:56.937Z,22.20
2022-08-05T10:57:30.879Z,22.20
2022-08-05T11:00:18.224Z,22.20
2022-08-05T11:03:23.747Z,22.10
2022-08-05T11:06:15.974Z,22.00
2022-08-05T11:09:04.265Z,22.00
2022-08-05T11:11:44.720Z,22.00
2022-08-05T11:14:42.794Z,21.90
2022-08-05T11:17:57.083Z,22.00
2022-08-05T11:20:37.480Z,22.30
2022-08-05T11:23:25.789Z,22.60
2022-08-05T11:26:09.083Z,22.80
2022-08-05T11:28:38.657Z,23.00
2022-08-05T11:31:08.182Z,23.30
2022-08-05T11:33:46.289Z,23.50
2022-08-05T11:36:34.244Z,23.70
2022-08-05T11:39:07.805Z,24.00
2022-08-05T11:42:01.233Z,24.10
2022-08-05T11:44:53.274Z,24.20
2022-08-05T11:47:48.761Z,24.20
2022-08-05T11:50:09.131Z,24.30
2022-08-05T11:52:36.821Z,24.30
2022-08-05T11:55:07.076Z,24.40
2022-08-05T11:58:08.579Z,24.40
2022-08-05T12:00:30.345Z,24.50
2022-08-05T12:02:58.530Z,24.70
2022-08-05T12:05:36.223Z,24.80
2022-08-05T12:08:18.073Z,24.90
2022-08-05T12:10:47.333Z,25.00
2022-08-05T12:13:27.624Z,25.10
2022-08-05T12:16:14.235Z,25.10
2022-08-05T12:18:52.803Z,24.90
2022-08-05T12:21:23.591Z,24.80
2022-08-05T12:23:54.681Z,24.70
2022-08-05T12:26:23.205Z,24.60
2022-08-05T12:28:51.621Z,24.40
2022-08-05T12:31:32.548Z,24.30
2022-08-05T12:34:06.880Z,24.10
2022-08-05T12:36:35.542Z,24.00
2022-08-05T12:39:05.580Z,23.90
2022-08-05T12:41:35.833Z,23.80
2022-08-05T12:44:14.448Z,23.70
2022-08-05T12:46:53.575Z,23.60
2022-08-05T12:49:25.464Z,23.60
2022-08-05T12:52:12.864Z,23.50
2022-08-05T12:54:47.562Z,23.40
2022-08-05T12:57:17.739Z,23.40
2022-08-05T13:01:56.699Z,23.30
2022-08-05T13:02:36.854Z,23.30
2022-08-05T13:05:07.054Z,23.20
2022-08-05T13:10:23.995Z,23.10
2022-08-05T13:12:58.061Z,23.00
2022-08-05T13:15:41.387Z,23.00
2022-08-05T13:18:19.802Z,23.00
2022-08-05T13:20:49.118Z,23.00
2022-08-05T13:23:18.182Z,23.00
2022-08-05T13:25:59.321Z,23.10
2022-08-05T13:28:29.630Z,23.30
2022-08-05T13:31:00.091Z,23.50
2022-08-05T13:34:22.196Z,23.60
2022-08-05T13:36:26.357Z,23.70
2022-08-05T13:38:54.439Z,23.90
2022-08-05T13:41:22.526Z,24.10
2022-08-05T13:43:54.837Z,24.30
2022-08-05T13:46:37.887Z,24.50
2022-08-05T13:49:12.494Z,24.70
2022-08-05T13:51:46.286Z,24.80
2022-08-05T13:54:15.493Z,24.90
2022-08-05T13:56:50.797Z,25.10
2022-08-05T13:59:21.345Z,25.10
2022-08-05T14:01:57.443Z,25.10
2022-08-05T14:04:50.036Z,25.10
2022-08-05T14:07:25.838Z,25.20
2022-08-05T14:10:10.889Z,25.20
2022-08-05T14:12:39.295Z,25.10
2022-08-05T14:16:07.547Z,25.10
2022-08-05T14:17:59.720Z,25.10
2022-08-05T14:20:27.800Z,25.10
2022-08-05T14:22:55.938Z,25.10
2022-08-05T14:25:27.962Z,25.10
2022-08-05T14:27:58.477Z,25.10
2022-08-05T14:30:28.013Z,25.20
2022-08-05T14:32:56.767Z,25.20
2022-08-05T14:35:36.957Z,25.20
2022-08-05T14:38:32.788Z,25.10
2022-08-05T14:41:00.864Z,25.10
2022-08-05T14:43:53.896Z,25.10
2022-08-05T14:46:16.439Z,25.00
2022-08-05T14:48:44.734Z,25.00
2022-08-05T14:51:18.010Z,24.90
2022-08-05T14:54:25.846Z,24.90
2022-08-05T14:56:37.996Z,24.80
2022-08-05T14:59:12.766Z,24.80
2022-08-05T15:01:47.859Z,24.70
2022-08-05T15:04:17.500Z,24.70
2022-08-05T15:06:49.366Z,24.60
2022-08-05T15:09:51.355Z,24.60
2022-08-05T15:12:11.480Z,24.70
2022-08-05T15:14:42.270Z,24.70
2022-08-05T15:17:45.602Z,24.70
2022-08-05T15:20:06.265Z,24.70
2022-08-05T15:22:37.756Z,24.70
2022-08-05T15:25:13.592Z,24.80
2022-08-05T15:27:42.857Z,24.70
2022-08-05T15:30:20.288Z,24.70
2022-08-05T15:32:50.189Z,24.60
2022-08-05T15:35:18.641Z,24.60
2022-08-05T15:38:32.951Z,24.50
2022-08-05T15:40:59.157Z,24.50
2022-08-05T15:43:25.376Z,24.50
2022-08-05T15:46:00.704Z,24.50
2022-08-05T15:48:29.455Z,24.50
2022-08-05T15:50:57.556Z,24.50
2022-08-05T15:53:26.341Z,24.50
2022-08-05T15:56:04.084Z,24.50
2022-08-05T15:58:37.064Z,24.50
2022-08-05T16:01:16.291Z,24.50
2022-08-05T16:03:45.575Z,24.40
2022-08-05T16:06:19.563Z,24.40
2022-08-05T16:08:51.118Z,24.30
2022-08-05T16:11:42.900Z,24.30
2022-08-05T16:14:09.342Z,24.30
2022-08-05T16:16:37.374Z,24.20
2022-08-05T16:19:05.127Z,24.10
2022-08-05T16:22:00.661Z,24.10
2022-08-05T16:24:39.600Z,24.00
2022-08-05T16:27:08.747Z,24.00
2022-08-05T16:29:37.275Z,23.90
2022-08-05T16:32:09.515Z,23.90
2022-08-05T16:34:41.697Z,23.80
2022-08-05T16:38:03.609Z,23.70
2022-08-05T16:40:06.521Z,23.70
2022-08-05T16:42:36.215Z,23.70
2022-08-05T16:46:02.842Z,23.70
2022-08-05T16:47:55.556Z,23.60
2022-08-05T16:50:26.186Z,23.60
2022-08-05T16:52:53.845Z,23.50
2022-08-05T16:55:24.475Z,23.50
2022-08-05T16:58:00.351Z,23.40
2022-08-05T17:00:34.532Z,23.40
2022-08-05T17:03:09.156Z,23.40
2022-08-05T17:05:46.975Z,23.40
2022-08-05T17:08:33.463Z,23.30
2022-08-05T17:11:08.858Z,23.30
2022-08-05T17:13:42.198Z,23.30
2022-08-05T17:16:29.863Z,23.20
2022-08-05T17:18:58.011Z,23.20
2022-08-05T17:21:25.629Z,23.20
2022-08-05T17:24:18.659Z,23.20
2022-08-05T17:26:52.253Z,23.10
2022-08-05T17:29:22.227Z,23.10
2022-08-05T17:31:57.335Z,23.10
2022-08-05T17:34:29.495Z,23.00
2022-08-05T17:36:58.258Z,23.00
2022-08-05T17:39:34.131Z,22.90
2022-08-05T17:42:17.737Z,22.90
2022-08-05T17:44:50.215Z,22.90
2022-08-05T17:47:22.433Z,22.80
2022-08-05T17:50:00.289Z,22.80
2022-08-05T17:52:32.971Z,22.80
2022-08-05T17:55:03.001Z,22.70
2022-08-05T17:57:31.373Z,22.70
2022-08-05T18:00:03.491Z,22.60
2022-08-05T18:02:34.250Z,22.60
2022-08-05T18:05:07.007Z,22.60
2022-08-05T18:07:41.339Z,22.50
2022-08-05T18:10:14.005Z,22.50
2022-08-05T18:12:48.589Z,22.50
2022-08-05T18:15:16.675Z,22.40
2022-08-05T18:18:01.699Z,22.40
2022-08-05T18:20:31.963Z,22.40
2022-08-05T18:23:09.191Z,22.30
2022-08-05T18:25:38.925Z,22.30
2022-08-05T18:28:07.365Z,22.30
2022-08-05T18:30:38.937Z,22.20
2022-08-05T18:33:08.456Z,22.10
2022-08-05T18:35:59.874Z,22.10
2022-08-05T18:38:25.778Z,22.10
2022-08-05T18:41:55.015Z,22.00
2022-08-05T18:43:42.997Z,22.00
2022-08-05T18:46:20.165Z,21.90
2022-08-05T18:48:53.470Z,21.90
2022-08-05T18:52:04.715Z,21.90
2022-08-05T18:54:31.709Z,21.80
2022-08-05T18:57:01.361Z,21.80
2022-08-05T18:59:43.000Z,21.70
2022-08-05T19:02:26.667Z,21.70
2022-08-05T19:05:01.677Z,21.60
2022-08-05T19:07:45.984Z,21.60
2022-08-05T19:10:14.566Z,21.50
2022-08-05T19:12:43.082Z,21.40
2022-08-05T19:15:57.082Z,21.40
2022-08-05T19:18:10.065Z,21.30
2022-08-05T19:20:41.592Z,21.30
2022-08-05T19:23:22.742Z,21.20
2022-08-05T19:26:02.215Z,21.20
2022-08-05T19:28:34.577Z,21.20
2022-08-05T19:31:05.791Z,21.10
2022-08-05T19:33:36.854Z,21.10
2022-08-05T19:36:06.483Z,20.90
2022-08-05T19:38:35.944Z,20.70
2022-08-05T19:41:09.050Z,20.60
2022-08-05T19:44:07.072Z,20.50
2022-08-05T19:46:29.006Z,20.40
2022-08-05T19:49:03.274Z,20.20
2022-08-05T19:52:05.668Z,20.10
2022-08-05T19:54:26.620Z,20.00
2022-08-05T19:56:59.496Z,20.00
2022-08-05T19:59:56.267Z,19.90
2022-08-05T20:02:17.694Z,19.90
2022-08-05T20:04:48.208Z,20.00
2022-08-05T20:07:45.888Z,20.10
2022-08-05T20:10:13.210Z,20.10
2022-08-05T20:12:48.188Z,20.10
2022-08-05T20:15:48.027Z,20.20
2022-08-05T20:18:10.354Z,20.20
2022-08-05T20:20:56.016Z,20.20
2022-08-05T20:23:39.750Z,20.20
2022-08-05T20:26:15.867Z,20.20
2022-08-05T20:28:45.755Z,20.10
2022-08-05T20:31:13.683Z,20.20
2022-08-05T20:33:44.436Z,20.20
2022-08-05T20:36:14.379Z,20.10
2022-08-05T20:38:53.695Z,20.10
2022-08-05T20:41:24.133Z,20.10
2022-08-05T20:43:59.581Z,20.10
2022-08-05T20:46:30.388Z,20.00
2022-08-05T20:48:59.744Z,20.00
2022-08-05T20:51:30.196Z,20.00
2022-08-05T20:54:01.367Z,19.90
2022-08-05T20:56:34.251Z,19.90
2022-08-05T20:59:19.252Z,19.80
2022-08-05T21:01:56.335Z,19.80
2022-08-05T21:04:26.915Z,19.70
2022-08-05T21:06:55.799Z,19.80
2022-08-05T21:09:23.681Z,19.80
2022-08-05T21:12:10.869Z,19.80
2022-08-05T21:14:39.869Z,19.80
2022-08-05T21:17:07.519Z,19.80
2022-08-05T21:19:46.648Z,19.80
2022-08-05T21:22:23.238Z,19.80
2022-08-05T21:24:52.641Z,19.80
2022-08-05T21:27:25.464Z,19.80
2022-08-05T21:30:02.023Z,19.70
2022-08-05T21:32:30.156Z,19.80
2022-08-05T21:35:08.576Z,19.70
2022-08-05T21:37:47.407Z,19.70
2022-08-05T21:40:22.241Z,19.70
2022-08-05T21:42:51.635Z,19.70
2022-08-05T21:45:25.241Z,19.60
2022-08-05T21:48:08.905Z,19.60
2022-08-05T21:50:37.423Z,19.60
2022-08-05T21:53:16.220Z,19.60
2022-08-05T21:56:04.910Z,19.60
2022-08-05T21:58:32.551Z,19.50
2022-08-05T22:01:01.405Z,19.50
2022-08-05T22:03:51.923Z,19.50
2022-08-05T22:06:22.833Z,19.50
2022-08-05T22:09:13.075Z,19.40
2022-08-05T22:11:41.174Z,19.40
2022-08-05T22:14:33.979Z,19.40
2022-08-05T22:17:01.491Z,19.40
2022-08-05T22:20:01.836Z,19.30
2022-08-05T22:22:26.683Z,19.30
2022-08-05T22:25:18.167Z,19.30
2022-08-05T22:28:08.390Z,19.20
2022-08-05T22:30:55.542Z,19.20
2022-08-05T22:33:57.105Z,19.20
2022-08-05T22:36:16.383Z,19.20
2022-08-05T22:38:48.342Z,19.20
2022-08-05T22:42:05.401Z,19.10
2022-08-05T22:44:05.604Z,19.10
2022-08-05T22:46:33.268Z,19.10
2022-08-05T22:49:00.896Z,19.10
2022-08-05T22:52:05.558Z,19.00
2022-08-05T22:54:16.212Z,19.00
2022-08-05T22:56:43.832Z,19.00
2022-08-05T22:59:45.029Z,19.00
2022-08-05T23:02:07.687Z,18.90
2022-08-05T23:04:36.338Z,18.90
2022-08-05T23:07:05.742Z,18.90
2022-08-05T23:09:57.437Z,18.80
2022-08-05T23:12:24.346Z,18.80
2022-08-05T23:14:52.271Z,18.80
2022-08-05T23:17:35.037Z,18.80
2022-08-05T23:20:17.675Z,18.70
2022-08-05T23:22:48.915Z,18.70
2022-08-05T23:25:51.503Z,18.70
2022-08-05T23:28:11.173Z,18.70
2022-08-05T23:30:43.386Z,18.60
2022-08-05T23:33:16.435Z,18.60
2022-08-05T23:35:55.060Z,18.50
2022-08-05T23:38:25.762Z,18.60
2022-08-05T23:40:53.414Z,18.50
2022-08-05T23:43:24.827Z,18.50
2022-08-05T23:46:04.504Z,18.50
2022-08-05T23:48:32.136Z,18.40
2022-08-05T23:51:00.136Z,18.40
2022-08-05T23:53:46.681Z,18.40
2022-08-05T23:56:20.258Z,18.40
2022-08-05T23:58:55.052Z,18.40
